Time;durP1;ratioP1;P1;durP2;ratioP2;P2;SDS_P1;SDS_P2;PMS_P1;PMS_P2;Temp;Humidity;BMP_temperature;BMP_pressure;BME280_temperature;BME280_humidity;BME280_pressure;Samples;Min_cycle;Max_cycle;Signal;HPM_P1;HPM_P2
2023/10/19 00:02:05;;;;;;;16.08;10.88;;;;;;;;;;4941384;29;20059;-79
2023/10/19 00:04:34;;;;;;;19.10;11.50;;;;;;;;;;4936671;29;20067;-79
2023/10/19 00:07:00;;;;;;;15.65;11.05;;;;;;;;;;4924623;29;20067;-79
2023/10/19 00:09:31;;;;;;;14.68;10.60;;;;;;;;;;4926754;29;20090;-80
2023/10/19 00:11:57;;;;;;;18.48;12.05;;;;;;;;;;4903395;29;20049;-80
2023/10/19 00:14:25;;;;;;;19.33;12.07;;;;;;;;;;4919948;29;20039;-80
2023/10/19 00:17:00;;;;;;;17.80;11.88;;;;;;;;;;4888285;29;20131;-80
2023/10/19 00:19:28;;;;;;;17.65;12.18;;;;;;;;;;4903561;29;20046;-79
2023/10/19 00:21:55;;;;;;;16.33;11.43;;;;;;;;;;4918697;29;20526;-80
2023/10/19 00:24:25;;;;;;;19.98;12.30;;;;;;;;;;4903935;29;20131;-81
2023/10/19 00:26:55;;;;;;;20.13;11.93;;;;;;;;;;4903859;29;20075;-80
2023/10/19 00:29:30;;;;;;;18.35;12.20;;;;;;;;;;4900800;29;20046;-81
2023/10/19 00:31:58;;;;;;;19.42;12.10;;;8.90;99.90;;;;;;4919345;29;20098;-80
2023/10/19 00:34:25;;;;;;;20.73;11.90;;;;;;;;;;4918846;29;20101;-82
2023/10/19 00:36:52;;;;;;;18.35;11.80;;;;;;;;;;4918900;29;20051;-81
2023/10/19 00:39:21;;;;;;;18.80;12.20;;;;;;;;;;4919582;29;20074;-82
2023/10/19 00:41:47;;;;;;;17.60;12.20;;;;;;;;;;4903261;29;20040;-81
2023/10/19 00:44:22;;;;;;;17.40;12.63;;;;;;;;;;4919229;29;20048;-81
2023/10/19 00:47:07;;;;;;;21.17;13.07;;;;;;;;;;4903505;29;20092;-80
2023/10/19 00:49:33;;;;;;;17.92;12.80;;;;;;;;;;4919663;29;20388;-80
2023/10/19 00:52:10;;;;;;;20.98;13.75;;;;;;;;;;4919174;29;20249;-80
2023/10/19 00:54:58;;;;;;;19.58;13.30;;;;;;;;;;4919388;29;20044;-80
2023/10/19 00:57:33;;;;;;;19.92;13.27;;;;;;;;;;4917894;29;20039;-79
2023/10/19 01:00:12;;;;;;;18.17;12.75;;;;;;;;;;4917687;29;20511;-80
2023/10/19 01:02:43;;;;;;;20.00;13.25;;;8.90;99.90;;;;;;4919728;29;20043;-80
2023/10/19 01:05:13;;;;;;;20.17;13.52;;;;;;;;;;4903246;29;20130;-80
2023/10/19 01:07:39;;;;;;;18.52;13.18;;;;;;;;;;4903176;29;20516;-80
2023/10/19 01:10:13;;;;;;;16.75;12.63;;;;;;;;;;4919047;29;20492;-80
2023/10/19 01:12:40;;;;;;;19.75;13.60;;;;;;;;;;4902123;29;20127;-80
2023/10/19 01:15:17;;;;;;;19.90;14.10;;;8.80;99.90;;;;;;4918868;29;20039;-80
2023/10/19 01:17:52;;;;;;;20.25;13.77;;;8.70;99.90;;;;;;4918786;29;20059;-80
2023/10/19 01:20:20;;;;;;;22.08;13.93;;;;;;;;;;4918994;29;20043;-80
2023/10/19 01:22:53;;;;;;;20.60;14.07;;;8.70;99.90;;;;;;4919049;29;20058;-80
2023/10/19 01:25:24;;;;;;;19.10;13.48;;;;;;;;;;4903515;29;20487;-80
2023/10/19 01:27:54;;;;;;;20.88;14.70;;;;;;;;;;4902818;29;20050;-80
2023/10/19 01:30:20;;;;;;;19.73;13.60;;;;;;;;;;4887561;29;20059;-80
2023/10/19 01:32:47;;;;;;;21.05;13.60;;;;;;;;;;4911695;29;20150;-80
2023/10/19 01:35:13;;;;;;;20.65;14.32;;;;;;;;;;4922432;29;20455;-80
2023/10/19 01:37:39;;;;;;;19.52;13.73;;;;;;;;;;4922974;29;20040;-80
2023/10/19 01:40:05;;;;;;;22.80;13.85;;;;;;;;;;4906652;29;20044;-80
2023/10/19 01:42:31;;;;;;;22.52;14.10;;;;;;;;;;4906781;29;20075;-80
2023/10/19 01:44:57;;;;;;;22.50;15.18;;;;;;;;;;4922380;29;20048;-80
2023/10/19 01:47:25;;;;;;;18.83;13.63;;;;;;;;;;4922229;29;20381;-80
2023/10/19 01:49:52;;;;;;;17.75;13.52;;;;;;;;;;4921726;29;20130;-80
2023/10/19 01:52:18;;;;;;;19.67;14.02;;;;;;;;;;4922420;29;20447;-80
2023/10/19 01:54:44;;;;;;;19.55;14.48;;;;;;;;;;4922386;29;20095;-80
2023/10/19 01:57:12;;;;;;;21.25;15.32;;;;;;;;;;4921965;29;20122;-80
2023/10/19 01:59:38;;;;;;;19.55;13.23;;;;;;;;;;4906340;29;20052;-80
2023/10/19 02:02:04;;;;;;;21.92;13.98;;;;;;;;;;4922201;29;20039;-79
2023/10/19 02:04:34;;;;;;;20.10;14.02;;;;;;;;;;4906367;29;20083;-79
2023/10/19 02:07:01;;;;;;;21.73;14.77;;;;;;;;;;4921962;29;20054;-79
2023/10/19 02:09:29;;;;;;;18.73;14.13;;;;;;;;;;4921735;29;20032;-79
2023/10/19 02:11:57;;;;;;;18.73;13.20;;;8.90;99.90;;;;;;4921783;29;20054;-80
2023/10/19 02:14:25;;;;;;;23.13;14.10;;;8.90;99.90;;;;;;4921904;29;20044;-80
2023/10/19 02:16:59;;;;;;;21.33;13.65;;;;;;;;;;4921401;29;20042;-81
2023/10/19 02:19:26;;;;;;;18.17;13.20;;;;;;;;;;4904919;29;20052;-81
2023/10/19 02:22:12;;;;;;;18.67;12.88;;;;;;;;;;4905670;29;20444;-81
2023/10/19 02:24:41;;;;;;;19.63;13.35;;;;;;;;;;4909401;29;20040;-81
2023/10/19 02:27:09;;;;;;;16.73;12.90;;;;;;;;;;4905438;29;20044;-81
2023/10/19 02:29:36;;;;;;;18.13;12.63;;;;;;;;;;4921412;29;20048;-81
2023/10/19 02:32:04;;;;;;;17.65;12.18;;;;;;;;;;4920787;29;20484;-80
2023/10/19 02:34:30;;;;;;;17.70;12.82;;;;;;;;;;4890038;29;20071;-80
2023/10/19 02:36:56;;;;;;;16.63;12.25;;;;;;;;;;4896815;29;20043;-80
2023/10/19 02:39:28;;;;;;;18.63;11.77;;;;;;;;;;4904593;29;20043;-81
2023/10/19 02:42:01;;;;;;;19.43;11.60;;;;;;;;;;4920137;29;20040;-81
2023/10/19 02:44:30;;;;;;;13.93;10.55;;;;;;;;;;4921110;29;20071;-80
2023/10/19 02:46:59;;;;;;;15.55;11.30;;;;;;;;;;4905554;29;20501;-81
2023/10/19 02:49:26;;;;;;;13.65;10.27;;;;;;;;;;4921275;29;20036;-80
2023/10/19 02:51:53;;;;;;;13.40;10.73;;;8.80;99.90;;;;;;4920556;29;20071;-80
2023/10/19 02:54:24;;;;;;;14.63;10.25;;;8.70;99.90;;;;;;4921241;29;20040;-81
2023/10/19 02:56:51;;;;;;;11.20;9.55;;;;;;;;;;4920708;29;20456;-81
2023/10/19 02:59:24;;;;;;;10.65;8.82;;;8.80;99.90;;;;;;4920750;29;20098;-80
2023/10/19 03:02:06;;;;;;;12.15;9.32;;;8.90;99.90;;;;;;4920919;29;20095;-81
2023/10/19 03:04:35;;;;;;;12.07;8.48;;;;;;;;;;4907391;29;20040;-80
2023/10/19 03:07:02;;;;;;;11.43;8.40;;;;;;;;;;4923304;29;20089;-80
2023/10/19 03:09:29;;;;;;;10.00;7.68;;;;;;;;;;4912673;29;20056;-80
2023/10/19 03:11:59;;;;;;;9.05;7.10;;;;;;;;;;4927503;29;20058;-80
2023/10/19 03:14:26;;;;;;;11.20;8.10;;;;;;;;;;4925165;29;20051;-80
2023/10/19 03:16:55;;;;;;;10.30;8.10;;;;;;;;;;4907118;29;20392;-80
2023/10/19 03:19:22;;;;;;;13.27;7.30;;;;;;;;;;4905412;29;20050;-79
2023/10/19 03:21:50;;;;;;;9.82;7.50;;;;;;;;;;4920995;29;20078;-79
2023/10/19 03:24:35;;;;;;;10.40;7.78;;;;;;;;;;4920643;29;20036;-79
2023/10/19 03:27:01;;;;;;;9.18;6.93;;;;;;;;;;4920293;29;20046;-80
2023/10/19 03:29:38;;;;;;;9.50;8.15;;;;;;;;;;4920701;29;20047;-80
2023/10/19 03:32:08;;;;;;;9.10;7.07;;;;;;;;;;4901091;29;20504;-79
2023/10/19 03:34:35;;;;;;;9.57;7.30;;;9.00;99.90;;;;;;4885854;29;20044;-79
2023/10/19 03:37:12;;;;;;;8.18;6.70;;;;;;;;;;4901395;29;20040;-80
2023/10/19 03:39:38;;;;;;;9.80;6.78;;;;;;;;;;4901749;29;20044;-79
2023/10/19 03:42:13;;;;;;;9.48;7.20;;;;;;;;;;4885454;29;20036;-80
2023/10/19 03:44:53;;;;;;;8.95;7.07;;;;;;;;;;4901401;29;20051;-78
2023/10/19 03:47:19;;;;;;;7.47;6.38;;;;;;;;;;4872102;29;20044;-80
2023/10/19 03:49:46;;;;;;;7.70;6.60;;;;;;;;;;4869430;29;20040;-80
2023/10/19 03:54:39;;;;;;;7.60;6.68;;;;;;;;;;4900967;29;20054;-80
2023/10/19 03:57:10;;;;;;;8.05;6.43;;;;;;;;;;4900863;29;20079;-80
2023/10/19 03:59:37;;;;;;;7.35;6.57;;;;;;;;;;4899394;29;20493;-80
2023/10/19 04:02:16;;;;;;;8.88;6.70;;;;;;;;;;4886669;29;20051;-80
2023/10/19 04:04:48;;;;;;;7.53;6.43;;;;;;;;;;4900378;29;20090;-81
2023/10/19 04:07:21;;;;;;;7.55;6.53;;;;;;;;;;4884946;29;20032;-81
2023/10/19 04:12:24;;;;;;;7.07;6.28;;;;;;;;;;4901061;29;20395;-81
2023/10/19 04:14:50;;;;;;;6.95;6.07;;;;;;;;;;4900767;29;20063;-81
2023/10/19 04:17:20;;;;;;;7.72;6.38;;;;;;;;;;4884888;29;20047;-81
2023/10/19 04:19:48;;;;;;;7.30;6.60;;;;;;;;;;4900591;29;20556;-81
2023/10/19 04:22:22;;;;;;;8.25;6.35;;;;;;;;;;4884819;29;20044;-81
2023/10/19 04:24:49;;;;;;;7.85;7.05;;;;;;;;;;4867582;29;20044;-81
2023/10/19 04:27:15;;;;;;;8.23;6.90;;;;;;;;;;4869146;29;20500;-81
2023/10/19 04:29:43;;;;;;;7.68;6.53;;;;;;;;;;4870601;29;20044;-81
2023/10/19 04:32:09;;;;;;;7.45;6.63;;;;;;;;;;4919194;29;20047;-81
2023/10/19 04:34:39;;;;;;;7.88;6.10;;;;;;;;;;4919549;29;20047;-81
2023/10/19 04:37:06;;;;;;;7.65;6.18;;;;;;;;;;4919014;29;20122;-81
2023/10/19 04:39:34;;;;;;;10.05;6.85;;;;;;;;;;4904763;29;20050;-81
2023/10/19 04:42:00;;;;;;;9.10;6.82;;;;;;;;;;4903550;29;20048;-81
2023/10/19 04:44:27;;;;;;;8.98;7.60;;;;;;;;;;4927107;29;20035;-80
2023/10/19 04:46:53;;;;;;;10.43;7.07;;;;;;;;;;4902810;29;20040;-79
2023/10/19 04:49:19;;;;;;;14.27;7.40;;;;;;;;;;4904450;29;20074;-80
2023/10/19 04:51:45;;;;;;;7.57;6.78;;;;;;;;;;4911217;29;20447;-80
2023/10/19 04:54:11;;;;;;;8.07;6.80;;;;;;;;;;4903824;29;20118;-81
2023/10/19 04:56:37;;;;;;;7.90;6.75;;;;;;;;;;4917488;29;20075;-81
2023/10/19 04:59:03;;;;;;;8.18;6.68;;;;;;;;;;4910055;29;20047;-81
2023/10/19 05:01:29;;;;;;;7.63;6.70;;;;;;;;;;4901423;29;20067;-81
2023/10/19 05:03:55;;;;;;;8.07;6.55;;;;;;;;;;4935143;29;20126;-81
2023/10/19 05:06:22;;;;;;;8.57;6.65;;;;;;;;;;4905461;29;20044;-81
2023/10/19 05:08:48;;;;;;;6.93;5.90;;;;;;;;;;4905524;29;20054;-81
2023/10/19 05:11:14;;;;;;;6.95;5.95;;;;;;;;;;4903952;29;20400;-81
2023/10/19 05:13:40;;;;;;;7.20;6.13;;;;;;;;;;4928500;29;20055;-82
2023/10/19 05:16:07;;;;;;;6.60;5.90;;;;;;;;;;4924952;29;20044;-82
2023/10/19 05:18:34;;;;;;;6.57;5.63;;;;;;;;;;4927580;29;20074;-81
2023/10/19 05:21:00;;;;;;;6.05;5.45;;;;;;;;;;4921504;29;20096;-82
2023/10/19 05:23:27;;;;;;;6.47;5.55;;;;;;;;;;4898180;29;20040;-82
2023/10/19 05:25:54;;;;;;;6.60;5.35;;;;;;;;;;4921698;29;20050;-82
2023/10/19 05:28:21;;;;;;;5.75;5.15;;;;;;;;;;4920136;29;20044;-82
2023/10/19 05:30:49;;;;;;;5.85;5.22;;;;;;;;;;4924625;29;20170;-81
2023/10/19 05:33:15;;;;;;;5.80;5.20;;;;;;;;;;4922324;29;20399;-82
2023/10/19 05:35:41;;;;;;;5.88;5.10;;;;;;;;;;4904865;29;20488;-81
2023/10/19 05:38:08;;;;;;;5.65;4.93;;;;;;;;;;4934916;29;20036;-80
2023/10/19 05:40:35;;;;;;;6.20;5.25;;;;;;;;;;4918695;29;20079;-81
2023/10/19 05:43:02;;;;;;;6.13;5.13;;;;;;;;;;4918175;29;20043;-81
2023/10/19 05:45:28;;;;;;;5.25;4.60;;;9.30;99.90;;;;;;4918629;29;20373;-79
2023/10/19 05:47:58;;;;;;;5.80;5.20;;;;;;;;;;4887810;29;20474;-79
2023/10/19 05:50:24;;;;;;;6.68;5.00;;;;;;;;;;4903361;29;20051;-80
2023/10/19 05:52:51;;;;;;;5.63;4.90;;;;;;;;;;4918626;29;20035;-79
2023/10/19 05:55:21;;;;;;;6.50;5.47;;;;;;;;;;4918064;29;20051;-80
2023/10/19 05:57:47;;;;;;;6.32;5.18;;;;;;;;;;4927968;28;20032;-78
2023/10/19 06:00:13;;;;;;;5.55;4.82;;;;;;;;;;4953589;29;20043;-81
2023/10/19 06:02:44;;;;;;;5.72;4.65;;;;;;;;;;4915897;29;20436;-80
2023/10/19 06:05:10;;;;;;;5.13;4.50;;;;;;;;;;4918252;29;20099;-79
2023/10/19 06:07:37;;;;;;;5.35;4.50;;;;;;;;;;4927311;29;20418;-79
2023/10/19 06:10:06;;;;;;;5.13;4.55;;;9.20;99.90;;;;;;4918752;29;20126;-80
2023/10/19 06:12:33;;;;;;;5.80;4.50;;;;;;;;;;4918630;29;20044;-78
2023/10/19 06:15:00;;;;;;;5.60;4.47;;;;;;;;;;4896401;29;20040;-80
2023/10/19 06:17:27;;;;;;;5.20;4.68;;;;;;;;;;4907362;29;20110;-80
2023/10/19 06:19:54;;;;;;;4.90;4.40;;;;;;;;;;4921759;29;20047;-81
2023/10/19 06:22:20;;;;;;;5.88;5.05;;;;;;;;;;4921826;29;20042;-81
2023/10/19 06:24:46;;;;;;;5.53;4.70;;;;;;;;;;4907125;29;20067;-80
2023/10/19 06:27:12;;;;;;;6.28;4.78;;;;;;;;;;4889235;29;20136;-80
2023/10/19 06:29:38;;;;;;;5.53;4.93;;;;;;;;;;4920218;29;20574;-80
2023/10/19 06:32:04;;;;;;;6.25;4.78;;;;;;;;;;4912241;29;20047;-81
2023/10/19 06:34:31;;;;;;;5.28;4.78;;;;;;;;;;4922358;29;20465;-80
2023/10/19 06:36:59;;;;;;;5.22;4.60;;;;;;;;;;4906229;29;20123;-81
2023/10/19 06:39:25;;;;;;;5.32;4.78;;;;;;;;;;4932836;29;20039;-81
2023/10/19 06:41:51;;;;;;;5.97;4.93;;;;;;;;;;4925069;29;20047;-81
2023/10/19 06:44:18;;;;;;;5.78;5.15;;;;;;;;;;4908066;29;20478;-80
2023/10/19 06:46:44;;;;;;;6.00;5.30;;;;;;;;;;4921964;29;20044;-81
2023/10/19 06:49:10;;;;;;;5.60;4.57;;;;;;;;;;4922076;29;20082;-81
2023/10/19 06:51:37;;;;;;;5.95;4.93;;;;;;;;;;4908809;29;20036;-80
2023/10/19 06:54:03;;;;;;;5.65;4.72;;;;;;;;;;4898642;29;20075;-80
2023/10/19 06:56:30;;;;;;;6.32;4.72;;;;;;;;;;4902033;29;20432;-80
2023/10/19 06:58:56;;;;;;;6.38;5.07;;;;;;;;;;4921862;29;20039;-81
2023/10/19 07:01:28;;;;;;;4.93;4.43;;;;;;;;;;4909935;29;20039;-81
2023/10/19 07:03:56;;;;;;;5.72;4.72;;;;;;;;;;4914927;29;20044;-80
2023/10/19 07:06:22;;;;;;;5.20;4.70;;;;;;;;;;4924153;29;20522;-81
2023/10/19 07:08:48;;;;;;;5.32;4.68;;;;;;;;;;4886782;29;20048;-81
2023/10/19 07:11:14;;;;;;;5.65;4.78;;;;;;;;;;4895625;29;20071;-81
2023/10/19 07:13:40;;;;;;;7.45;4.57;;;;;;;;;;4937737;29;20125;-81
2023/10/19 07:16:10;;;;;;;4.88;4.38;;;10.50;99.90;;;;;;4909751;29;20043;-76
2023/10/19 07:18:36;;;;;;;5.93;4.50;;;;;;;;;;4920835;29;20047;-82
2023/10/19 07:21:03;;;;;;;5.65;4.70;;;;;;;;;;4901703;29;20043;-81
2023/10/19 07:23:29;;;;;;;4.80;4.15;;;;;;;;;;4908843;29;20428;-75
2023/10/19 07:25:56;;;;;;;6.53;4.53;;;;;;;;;;4938193;29;20043;-76
2023/10/19 07:28:26;;;;;;;5.00;4.50;;;9.40;99.90;;;;;;4920032;29;20051;-75
2023/10/19 07:30:52;;;;;;;6.00;4.45;;;;;;;;;;4919511;29;20060;-73
2023/10/19 07:33:19;;;;;;;5.28;4.70;;;;;;;;;;4888731;29;20039;-70
2023/10/19 07:35:46;;;;;;;11.98;4.78;;;;;;;;;;4920076;29;20079;-75
2023/10/19 07:38:16;;;;;;;5.10;4.60;;;;;;;;;;4922660;29;20094;-72
2023/10/19 07:40:46;;;;;;;6.88;4.93;;;;;;;;;;4925767;29;20456;-81
2023/10/19 07:43:12;;;;;;;5.63;4.85;;;;;;;;;;4904613;29;20070;-79
2023/10/19 07:45:38;;;;;;;5.40;4.68;;;;;;;;;;4926130;29;20047;-76
2023/10/19 07:48:10;;;;;;;5.53;4.50;;;;;;;;;;4921834;29;20048;-78
2023/10/19 07:50:40;;;;;;;9.00;4.57;;;9.50;99.90;;;;;;4923496;29;20483;-79
2023/10/19 07:53:06;;;;;;;6.97;4.72;;;;;;;;;;4921805;29;20044;-76
2023/10/19 07:55:32;;;;;;;7.15;5.03;;;;;;;;;;4904268;29;20491;-76
2023/10/19 07:58:06;;;;;;;6.40;5.18;;;;;;;;;;4904319;29;20376;-75
2023/10/19 08:00:33;;;;;;;8.10;4.97;;;;;;;;;;4919805;29;20498;-76
2023/10/19 08:03:00;;;;;;;7.38;5.13;;;;;;;;;;4919613;29;20130;-76
2023/10/19 08:05:26;;;;;;;6.90;5.07;;;;;;;;;;4920108;29;20044;-74
2023/10/19 08:07:52;;;;;;;5.18;4.68;;;;;;;;;;4904067;29;20051;-76
2023/10/19 08:10:19;;;;;;;5.63;4.97;;;;;;;;;;4919517;29;20062;-75
2023/10/19 08:12:49;;;;;;;7.18;5.28;;;9.80;99.90;;;;;;4919845;29;20060;-77
2023/10/19 08:15:16;;;;;;;6.60;5.25;;;9.90;99.90;;;;;;4904080;29;20120;-77
2023/10/19 08:17:44;;;;;;;5.75;5.15;;;9.70;99.90;;;;;;4888440;29;20053;-76
2023/10/19 08:20:22;;;;;;;5.80;5.13;;;;;;;;;;4925326;29;20031;-76
2023/10/19 08:22:49;;;;;;;6.57;5.38;;;;;;;;;;4925432;29;20353;-75
2023/10/19 08:25:15;;;;;;;5.53;5.00;;;;;;;;;;4919338;29;20079;-74
2023/10/19 08:27:44;;;;;;;6.70;5.55;;;;;;;;;;4919498;29;20508;-75
2023/10/19 08:30:12;;;;;;;10.43;6.90;;;9.80;99.90;;;;;;4903922;29;20055;-75
2023/10/19 08:32:39;;;;;;;8.30;6.32;;;;;;;;;;4919216;29;20075;-76
2023/10/19 08:35:05;;;;;;;7.32;6.03;;;;;;;;;;4919451;29;20042;-76
2023/10/19 08:37:31;;;;;;;8.65;5.70;;;;;;;;;;4924323;29;20052;-75
2023/10/19 08:40:01;;;;;;;8.50;5.80;;;;;;;;;;4918738;29;20079;-75
2023/10/19 08:42:30;;;;;;;6.65;5.47;;;;;;;;;;4919030;29;20051;-76
2023/10/19 08:44:59;;;;;;;7.35;6.18;;;;;;;;;;4919274;29;20043;-76
2023/10/19 08:47:25;;;;;;;7.45;6.13;;;;;;;;;;4919159;29;20050;-75
2023/10/19 08:49:53;;;;;;;8.25;5.65;;;10.00;99.90;;;;;;4922125;29;20047;-75
2023/10/19 08:52:22;;;;;;;7.45;6.03;;;;;;;;;;4930388;29;20054;-75
2023/10/19 08:54:48;;;;;;;7.13;6.10;;;;;;;;;;4918990;29;20050;-75
2023/10/19 08:57:15;;;;;;;8.70;6.18;;;;;;;;;;4902860;29;20179;-75
2023/10/19 08:59:41;;;;;;;7.03;5.93;;;;;;;;;;4919142;29;20044;-76
2023/10/19 09:02:07;;;;;;;7.30;5.60;;;;;;;;;;4918872;29;20050;-75
2023/10/19 09:04:33;;;;;;;6.70;5.75;;;;;;;;;;4919047;29;20042;-75
2023/10/19 09:07:00;;;;;;;8.73;5.90;;;;;;;;;;4903197;29;20046;-75
2023/10/19 09:09:32;;;;;;;7.30;5.90;;;;;;;;;;4916401;29;20043;-74
2023/10/19 09:11:58;;;;;;;6.45;5.63;;;;;;;;;;4917589;29;20054;-75
2023/10/19 09:14:43;;;;;;;7.78;6.13;;;10.20;99.90;;;;;;4905752;29;20484;-74
2023/10/19 09:17:10;;;;;;;8.32;5.78;;;;;;;;;;4924153;29;20036;-75
2023/10/19 09:19:41;;;;;;;7.53;6.30;;;;;;;;;;4907774;29;20043;-75
2023/10/19 09:22:08;;;;;;;11.13;6.13;;;;;;;;;;4923329;29;20054;-74
2023/10/19 09:24:37;;;;;;;9.32;6.03;;;;;;;;;;4923504;29;20118;-75
2023/10/19 09:27:04;;;;;;;8.00;6.22;;;;;;;;;;4900031;29;20072;-75
2023/10/19 09:29:33;;;;;;;8.50;6.40;;;;;;;;;;4910177;29;20051;-75
2023/10/19 09:32:03;;;;;;;8.73;5.80;;;;;;;;;;4930419;29;20106;-74
2023/10/19 09:34:33;;;;;;;7.85;5.80;;;;;;;;;;4926977;29;20518;-74
2023/10/19 09:37:03;;;;;;;8.48;6.30;;;10.50;99.90;;;;;;4928364;29;20064;-75
2023/10/19 09:39:39;;;;;;;8.13;5.90;;;;;;;;;;4914227;29;20079;-74
2023/10/19 09:42:16;;;;;;;10.20;6.25;;;;;;;;;;4917091;29;20044;-75
2023/10/19 09:44:46;;;;;;;9.23;6.75;;;;;;;;;;4920444;29;20111;-75
2023/10/19 09:47:19;;;;;;;8.70;6.40;;;10.40;99.90;;;;;;4918937;29;20055;-75
2023/10/19 09:49:45;;;;;;;11.23;6.43;;;;;;;;;;4918834;29;20070;-75
2023/10/19 09:52:14;;;;;;;10.50;7.10;;;;;;;;;;4925442;29;20040;-76
2023/10/19 09:55:14;;;;;;;10.10;6.85;;;10.40;99.90;;;;;;4923937;29;20118;-76
2023/10/19 09:57:56;;;;;;;8.93;6.47;;;;;;;;;;4902599;29;20092;-76
2023/10/19 10:00:24;;;;;;;10.15;7.00;;;;;;;;;;4890297;29;20043;-76
2023/10/19 10:02:51;;;;;;;8.68;6.78;;;10.50;99.90;;;;;;4921248;29;20046;-76
2023/10/19 10:05:36;;;;;;;11.65;7.38;;;;;;;;;;4921688;29;20495;-76
2023/10/19 10:08:17;;;;;;;9.43;7.10;;;;;;;;;;4907170;29;20043;-75
2023/10/19 10:10:44;;;;;;;10.75;6.88;;;;;;;;;;4929134;29;20050;-76
2023/10/19 10:13:30;;;;;;;10.65;7.10;;;;;;;;;;4908410;29;20168;-76
2023/10/19 10:16:06;;;;;;;9.98;6.55;;;;;;;;;;4929926;29;20048;-76
2023/10/19 10:18:32;;;;;;;9.73;7.13;;;;;;;;;;4924525;29;20036;-76
2023/10/19 10:21:08;;;;;;;11.77;7.47;;;;;;;;;;4925325;29;20050;-76
2023/10/19 10:23:43;;;;;;;8.57;6.60;;;10.80;99.90;;;;;;4904928;29;20070;-80
2023/10/19 10:26:10;;;;;;;7.90;6.43;;;10.80;99.90;;;;;;4904656;29;20098;-75
2023/10/19 10:28:37;;;;;;;10.43;8.05;;;;;;;;;;4921014;29;20436;-76
2023/10/19 10:31:09;;;;;;;8.23;6.72;;;;;;;;;;4902846;29;20052;-76
2023/10/19 10:33:38;;;;;;;;;;;10.80;99.90;;;;;;4921040;29;20052;-75
2023/10/19 10:36:08;;;;;;;9.13;7.22;;;;;;;;;;4905482;29;20267;-75
2023/10/19 10:38:37;;;;;;;9.35;6.90;;;;;;;;;;4920691;29;20432;-75
2023/10/19 10:41:03;;;;;;;9.40;7.03;;;;;;;;;;4920656;29;20073;-75
2023/10/19 10:43:30;;;;;;;8.80;6.57;;;;;;;;;;4920378;29;20035;-76
2023/10/19 10:46:07;;;;;;;8.13;7.13;;;11.00;99.90;;;;;;4921931;29;20066;-75
2023/10/19 10:48:35;;;;;;;10.32;7.63;;;;;;;;;;4904091;29;20126;-77
2023/10/19 10:51:01;;;;;;;10.38;7.05;;;;;;;;;;4920517;29;20050;-77
2023/10/19 10:53:27;;;;;;;10.18;7.43;;;;;;;;;;4921451;29;20032;-79
2023/10/19 10:55:54;;;;;;;11.40;7.90;;;;;;;;;;4920135;29;20039;-79
2023/10/19 10:58:21;;;;;;;11.10;7.15;;;;;;;;;;4917723;29;20476;-78
2023/10/19 11:00:48;;;;;;;9.73;7.38;;;;;;;;;;4918907;29;20048;-78
2023/10/19 11:03:16;;;;;;;10.32;7.93;;;;;;;;;;4918190;29;20151;-78
2023/10/19 11:05:45;;;;;;;10.43;7.70;;;;;;;;;;4918610;29;20051;-78
2023/10/19 11:08:20;;;;;;;11.25;7.88;;;;;;;;;;4915922;29;20048;-78
2023/10/19 11:10:47;;;;;;;10.48;7.85;;;11.60;99.90;;;;;;4919368;29;20055;-78
2023/10/19 11:13:14;;;;;;;9.93;8.23;;;;;;;;;;4903522;29;20157;-77
2023/10/19 11:15:50;;;;;;;9.27;8.02;;;11.60;99.90;;;;;;4904055;29;20186;-78
2023/10/19 11:18:33;;;;;;;9.60;7.70;;;;;;;;;;4902623;29;20488;-79
2023/10/19 11:21:06;;;;;;;10.13;8.02;;;;;;;;;;4903437;29;20047;-78
2023/10/19 11:23:36;;;;;;;12.73;8.43;;;;;;;;;;4903118;29;20044;-77
2023/10/19 11:26:05;;;;;;;12.52;9.27;;;;;;;;;;4918450;29;20110;-77
2023/10/19 11:28:33;;;;;;;14.60;8.18;;;11.60;99.90;;;;;;4904199;29;20092;-77
2023/10/19 11:31:15;;;;;;;14.48;8.43;;;11.60;99.90;;;;;;4902292;29;20144;-76
2023/10/19 11:33:45;;;;;;;12.25;8.82;;;;;;;;;;4903602;29;20042;-78
2023/10/19 11:36:12;;;;;;;11.25;8.55;;;;;;;;;;4916077;29;20123;-77
2023/10/19 11:38:45;;;;;;;13.35;8.93;;;;;;;;;;4918873;29;20062;-77
2023/10/19 11:41:13;;;;;;;11.27;8.30;;;11.80;99.90;;;;;;4901403;29;20071;-77
2023/10/19 11:43:40;;;;;;;10.65;8.00;;;;;;;;;;4916586;29;20051;-77
2023/10/19 11:46:06;;;;;;;12.90;8.73;;;;;;;;;;4919299;29;20488;-77
2023/10/19 11:48:35;;;;;;;11.45;8.50;;;;;;;;;;4918685;29;20126;-77
2023/10/19 11:51:05;;;;;;;15.93;9.18;;;;;;;;;;4902905;29;20035;-77
2023/10/19 11:53:36;;;;;;;12.57;8.60;;;;;;;;;;4918976;29;20043;-77
2023/10/19 11:56:09;;;;;;;10.57;8.82;;;11.70;99.90;;;;;;4918097;29;20039;-77
2023/10/19 11:58:35;;;;;;;12.52;9.10;;;;;;;;;;4902343;29;20032;-77
2023/10/19 12:01:08;;;;;;;14.32;8.80;;;;;;;;;;4902508;29;20043;-77
2023/10/19 12:03:39;;;;;;;11.30;8.23;;;;;;;;;;4919619;29;20500;-77
2023/10/19 12:06:08;;;;;;;12.30;9.10;;;;;;;;;;4918873;29;20043;-77
2023/10/19 12:08:39;;;;;;;12.00;8.88;;;;;;;;;;4918397;29;20040;-77
2023/10/19 12:11:15;;;;;;;11.93;8.98;;;11.70;99.90;;;;;;4917523;29;20051;-77
2023/10/19 12:13:43;;;;;;;12.52;9.15;;;;;;;;;;4885854;29;20032;-77
2023/10/19 12:16:12;;;;;;;13.85;8.68;;;;;;;;;;4919595;29;20044;-77
2023/10/19 12:18:39;;;;;;;12.48;9.45;;;;;;;;;;4917901;29;20484;-77
2023/10/19 12:21:07;;;;;;;13.88;8.55;;;;;;;;;;4901890;29;20051;-77
2023/10/19 12:23:35;;;;;;;12.23;8.32;;;;;;;;;;4918131;29;20040;-77
2023/10/19 12:26:04;;;;;;;11.68;8.10;;;;;;;;;;4902446;29;20051;-77
2023/10/19 12:28:30;;;;;;;11.65;8.27;;;;;;;;;;4917998;29;20144;-77
2023/10/19 12:30:56;;;;;;;12.35;7.78;;;;;;;;;;4914440;29;20094;-77
2023/10/19 12:33:22;;;;;;;11.50;7.15;;;;;;;;;;4901558;29;20110;-77
2023/10/19 12:35:51;;;;;;;10.15;7.88;;;;;;;;;;4916874;29;20044;-77
2023/10/19 12:38:19;;;;;;;8.02;7.13;;;;;;;;;;4887521;29;20039;-76
2023/10/19 12:40:50;;;;;;;9.52;6.53;;;11.60;99.90;;;;;;4916985;29;20051;-76
2023/10/19 12:43:22;;;;;;;8.98;6.65;;;;;;;;;;4917483;29;20047;-76
2023/10/19 12:45:57;;;;;;;9.25;6.40;;;;;;;;;;4917989;29;20063;-77
2023/10/19 12:48:30;;;;;;;9.73;6.43;;;;;;;;;;4901716;29;20044;-77
2023/10/19 12:50:56;;;;;;;7.25;5.75;;;;;;;;;;4901794;29;20448;-77
2023/10/19 12:53:24;;;;;;;9.02;5.65;;;;;;;;;;4917308;29;20046;-77
2023/10/19 12:55:51;;;;;;;6.10;5.40;;;;;;;;;;4916447;29;20039;-77
2023/10/19 12:58:19;;;;;;;6.75;5.40;;;;;;;;;;4917346;29;20031;-77
2023/10/19 13:00:47;;;;;;;7.50;5.60;;;;;;;;;;4916886;29;20091;-77
2023/10/19 13:03:14;;;;;;;6.15;5.15;;;;;;;;;;4901513;29;20484;-76
2023/10/19 13:05:41;;;;;;;9.65;5.10;;;;;;;;;;4901076;29;20044;-77
2023/10/19 13:08:13;;;;;;;7.05;5.47;;;;;;;;;;4886939;29;20044;-77
2023/10/19 13:10:41;;;;;;;7.07;5.10;;;;;;;;;;4899726;29;20051;-78
2023/10/19 13:13:11;;;;;;;7.28;4.97;;;;;;;;;;4917357;29;20384;-76
2023/10/19 13:15:38;;;;;;;8.05;5.22;;;;;;;;;;4902710;29;20040;-76
2023/10/19 13:18:09;;;;;;;7.38;5.40;;;;;;;;;;4916092;29;20047;-76
2023/10/19 13:20:36;;;;;;;10.15;5.97;;;;;;;;;;4917274;29;20047;-77
2023/10/19 13:23:03;;;;;;;8.90;6.10;;;11.30;99.90;;;;;;4917266;29;20480;-76
2023/10/19 13:25:39;;;;;;;7.70;6.13;;;;;;;;;;4918453;29;20058;-76
2023/10/19 13:28:12;;;;;;;9.68;6.32;;;;;;;;;;4897849;29;20110;-77
2023/10/19 13:30:53;;;;;;;11.07;7.10;;;;;;;;;;4901695;29;20032;-78
2023/10/19 13:33:21;;;;;;;8.90;6.80;;;;;;;;;;4922837;29;20139;-78
2023/10/19 13:35:50;;;;;;;9.55;6.90;;;11.40;99.90;;;;;;4921011;29;20051;-78
2023/10/19 13:38:19;;;;;;;11.80;7.45;;;11.20;99.90;;;;;;4921195;29;20035;-77
2023/10/19 13:40:45;;;;;;;11.57;7.30;;;;;;;;;;4918513;29;20051;-77
2023/10/19 13:43:16;;;;;;;11.93;7.40;;;;;;;;;;4905375;29;20179;-77
2023/10/19 13:45:43;;;;;;;10.50;7.10;;;;;;;;;;4920984;29;20374;-79
2023/10/19 13:48:09;;;;;;;11.18;7.22;;;;;;;;;;4918721;29;20039;-77
2023/10/19 13:50:37;;;;;;;11.38;7.85;;;;;;;;;;4920673;29;20047;-77
2023/10/19 13:53:04;;;;;;;10.60;7.45;;;;;;;;;;4920281;29;20051;-76
2023/10/19 13:55:31;;;;;;;13.50;7.57;;;;;;;;;;4920449;29;20039;-77
2023/10/19 13:57:57;;;;;;;14.40;7.85;;;;;;;;;;4920554;29;20039;-77
2023/10/19 14:00:35;;;;;;;13.02;8.50;;;;;;;;;;4920514;29;20040;-77
2023/10/19 14:03:02;;;;;;;15.23;9.88;;;;;;;;;;4920632;29;20054;-78
2023/10/19 14:05:29;;;;;;;16.55;8.48;;;;;;;;;;4920763;29;20044;-77
2023/10/19 14:07:55;;;;;;;10.75;8.55;;;;;;;;;;4904659;29;20055;-77
2023/10/19 14:10:21;;;;;;;13.35;9.05;;;;;;;;;;4904461;29;20118;-77
2023/10/19 14:12:48;;;;;;;14.57;9.13;;;;;;;;;;4920791;29;20507;-77
2023/10/19 14:15:19;;;;;;;13.63;9.27;;;10.90;99.90;;;;;;4920560;29;20044;-77
2023/10/19 14:17:46;;;;;;;13.13;8.80;;;;;;;;;;4919997;29;20507;-76
2023/10/19 14:20:13;;;;;;;13.68;8.35;;;;;;;;;;4904242;29;20043;-78
2023/10/19 14:22:43;;;;;;;16.23;9.02;;;;;;;;;;4888055;29;20116;-77
2023/10/19 14:25:12;;;;;;;12.18;9.35;;;;;;;;;;4903763;29;20357;-78
2023/10/19 14:27:45;;;;;;;12.98;9.27;;;;;;;;;;4919957;29;20126;-77
2023/10/19 14:30:12;;;;;;;13.15;9.32;;;;;;;;;;4903941;29;20614;-77
2023/10/19 14:32:46;;;;;;;12.73;8.57;;;10.90;99.90;;;;;;4919668;29;20084;-76
2023/10/19 14:35:14;;;;;;;14.50;9.25;;;10.80;99.90;;;;;;4917854;29;20491;-79